CheckWX is a tool to help pilots better visualize weather data.  It is not intended as a substitute for an official pre-flight weather briefing.

21:23:48 UTC

KSLC TAF
Salt Lake City International Airport
Salt Lake City, Utah, USA
KSLC 172019Z 1720/1824 32008KT P6SM FEW090 FEW150 FM180600 16006KT P6SM SKC FM182000 30008KT P6SM SKC

Aug-17@
20:00 UTC

Aug-17 @ 20:00 UTC

Aug-18@
06:00 UTC

Aug-18 @ 06:00 UTC

KSLC 172019Z 1720/1824 32008KT P6SM FEW090 FEW150
Wind
  • 320° at 8 KTS
Cloud Levels
  • Few at 9,000' AGL
  • Few at 15,000' AGL

Aug-18@
06:00 UTC

Aug-18 @ 06:00 UTC

Aug-18@
20:00 UTC

Aug-18 @ 20:00 UTC

FM180600 16006KT P6SM SKC

From

From Standard forecast or significant change

Wind
  • 160° at 6 KTS
Cloud Levels
  • Clear skies

Aug-18@
20:00 UTC

Aug-18 @ 20:00 UTC

Aug-19@
00:00 UTC

Aug-19 @ 00:00 UTC

FM182000 30008KT P6SM SKC

From

From Standard forecast or significant change

Wind
  • 300° at 8 KTS
Cloud Levels
  • Clear skies